Notice: Radar data often is about one hour behind.
Radar is unstable, so pay attention to the date and time in the image


Latest  Newer  Older  Last 2 hours animation  Current image  Latest image  Summary per 24h (testing)  Summary per 7d (testing) 
Cloud coverage sat images  Infrared sat images 
Real-time lightning map

All time is UTC (add 2 hours in wintertime, 3 hours in DST for Latvia local time)

2019/11/14 10:50 EVRA 141050Z 18012KT 9999 -RA SCT013 BKN031 OVC044 12/10 Q1009 R18/290195 NOSIG
2019/11/14 10:50 EVLA 141050Z AUTO 26009KT 9999 SCT009/// BKN011/// OVC018/// 08/07 Q1010
2019/11/14 10:50 EVVA 141050Z AUTO 24012KT 4000 -RA SCT009 BKN013 OVC019 09/08 Q1007
2019/11/14 10:50 EYKA 141050Z 19007KT 150V220 2900 -DZ BR SCT007 OVC011 12/11 Q1011 R08/290095
2019/11/14 10:50 EYPA 141050Z 26005KT 210V320 9999 OVC010 08/06 Q1011 R19/1///95
2019/11/14 10:50 EYSA 141050Z 21010KT 9999 FEW013 OVC029 10/08 Q1010 R14L/29//95 R14R/29//95 BLU TEMPO SCT013 OVC030 GRN
2019/11/14 10:50 EYVI 141050Z 16010KT 9000 OVC008 10/09 Q1013 R19/2///95 NOSIG
2019/11/14 10:50 EEKA 141050Z 16013KT 9999 FEW014 BKN027 11/09 Q1002
2019/11/14 10:50 EEKE 141050Z 21018KT 9999 FEW016 OVC020 10/08 Q1004
2019/11/14 10:50 EEPU 141050Z 18011G23KT 130V220 8000 BKN/// 12/10 Q1006
2019/11/14 10:50 EETN 141050Z 18011KT 8000 BKN013 OVC020 11/09 Q1005 R08/290195 NOSIG
2019/11/14 10:50 EETU 141050Z 17012KT 9999 BKN017 11/08 Q1009
   RIGA AIRPORT     EVRA               56 55N  023 58E   10   X     T          6 LV
   LIEPAJA INTL     EVLA        26406  56 31N  021 06E    4   X                8 LV
   VENTPILS         EVVA               57 21N  021 33E    6   X                8 LV
   KAUNAS           EYKA               54 54N  023 55E   77   X     T          6 LT
   PALANGA INTL     EYPA               55 55N  021 03E   10   X                6 LT
   SIAULIAI INTL    EYSA               55 54N  023 24E  135   X     T          6 LT
   VILNIUS INTL     EYVI        26730  54 38N  025 17E  197   X     T          6 LT
   KARDLA           EEKA        26116  58 59N  022 50E    4   X                8 EE
   KURESSAARE       EEKE               58 14N  022 31E    4   X                8 EE
   PARNU            EEPU               58 25N  024 28E   14   X                8 EE
   TALLINN          EETN        26038  59 24N  024 49E   40   X     T          8 EE
   TARTU            EETU               58 19N  026 41E   67   X                8 EE

rain/snow radar image from www.meteo.lv and METAR data from weather.noaa.gov